Nuevo Laredo, Mexico

1:00 PM EST on February 07, 2016 (GMT -0500)
Vista Hermosa Subdivision | | Change Station
CLOSE
Current Station
Personal Weather Station
Location: Laredo, TX
Elevation: 489 ft
Nearby Weather Stations

Elev 489 ft 27.55 °N, 99.48 °W | Updated 12 seconds ago

Clear
Clear
66.8 °F
Feels Like 66.8 °F
N
4.0
Wind Variable Wind from SE
Gusts 8.0 mph

Today
High -- | Low -- °F
--% Chance of Precip.
Yesterday
High -- | Low -- °F
Precip. -- in
Pressure 30.27 in
Visibility 10.0 miles
Clouds Clear
Dew Point 31 °F
Humidity 26%
Rainfall 0.00 in
Snow Depth Not available.
8:21 AM 7:23 PM
Waning Crescent, 1% visible
METAR KLRD 071756Z 16015KT 10SM CLR 20/M04 A3024 RMK AO2 SLP250 T02001039 10200 20022 58022
Pressure 30.27 in
Visibility 10.0 miles
Clouds Clear
Dew Point 31 °F
Humidity 26%
Rainfall 0.00 in
Snow Depth Not available.
8:21 AM 7:23 PM
Waning Crescent, 1% visible
METAR KLRD 071756Z 16015KT 10SM CLR 20/M04 A3024 RMK AO2 SLP250 T02001039 10200 20022 58022

10-Day Weather Forecast

Almanac

Astronomy

Feb. 07, 2016 Rise Set
Actual Time
Civil Twilight
Nautical Twilight
Astronomical Twilight
Moon
Length of Visible Light
Length of Day
Tomorrow will be .
, % of the Moon is Illuminated

Today's Extremes

Country Highs Country Lows

Community

WunderPhotos

Upload Photos

1,891,248 photos uploaded!

WunderBlog® & News

Nearby

Air Quality

  Air Quality AQ Index Pollutant
Not available.

Snow Depth

Station Depth Elevation

Earthquake Activity

City Distance Mag. Time & Date
Minimum magnitude displayed is 2.5.

Coastal Water Temperatures

Place Temperature

Stations

Nearby Weather Stations

Station Location Temp. Windchill Dew Point Humidity Wind Precip. Elev Updated Type